Time;durP1;ratioP1;P1;durP2;ratioP2;P2;SDS_P1;SDS_P2;PMS_P1;PMS_P2;Temp;Humidity;BMP_temperature;BMP_pressure;BME280_temperature;BME280_humidity;BME280_pressure;Samples;Min_cycle;Max_cycle;Signal;HPM_P1;HPM_P2
2022/07/13 00:02:01;;;;;;;4.50;4.20;;;;;;;;;;5013129;28;20536;-55
2022/07/13 00:04:27;;;;;;;4.57;4.10;;;;;;;;;;5030869;28;20182;-55
2022/07/13 00:06:53;;;;;;;4.33;4.03;;;;;;;;;;5026008;28;20182;-55
2022/07/13 00:09:19;;;;;;;4.57;4.17;;;;;;;;;;5029841;28;20202;-55
2022/07/13 00:11:45;;;;;;;4.47;4.17;;;;;;;;;;5025324;28;20201;-55
2022/07/13 00:14:11;;;;;;;3.83;3.53;;;;;;;;;;5029455;28;20190;-55
2022/07/13 00:16:45;;;;;;;4.50;4.10;;;;;;;;;;5024831;28;20205;-55
2022/07/13 00:19:11;;;;;;;3.87;3.57;;;;;;;;;;5012588;28;20178;-55
2022/07/13 00:21:37;;;;;;;4.37;4.07;;;;;;;;;;5016057;28;20231;-55
2022/07/13 00:24:04;;;;;;;4.50;4.07;;;;;;;;;;4996834;28;20191;-55
2022/07/13 00:26:30;;;;;;;4.68;4.25;;;;;;;;;;5003292;28;20882;-54
2022/07/13 00:28:56;;;;;;;5.13;4.60;;;;;;;;;;5009043;28;20666;-55
2022/07/13 00:31:22;;;;;;;4.37;3.97;;;;;;;;;;5003602;28;20756;-55
2022/07/13 00:33:48;;;;;;;4.13;3.83;;;;;;;;;;5008032;28;20263;-55
2022/07/13 00:36:14;;;;;;;4.17;3.80;;;;;;;;;;5004454;28;20209;-55
2022/07/13 00:38:40;;;;;;;4.27;3.90;;;;;;;;;;5008452;28;20167;-55
2022/07/13 00:41:06;;;;;;;4.10;3.80;;;;;;;;;;5005231;28;20168;-55
2022/07/13 00:43:32;;;;;;;4.67;4.27;;;;;;;;;;4992490;28;20175;-54
2022/07/13 00:46:00;;;;;;;4.80;4.30;;;;;;;;;;5009483;28;20573;-54
2022/07/13 00:48:26;;;;;;;4.00;3.70;;;;;;;;;;5009055;28;20201;-55
2022/07/13 00:50:52;;;;;;;4.30;3.90;;;;;;;;;;5007921;28;20253;-55
2022/07/13 00:53:19;;;;;;;4.37;3.97;;;;;;;;;;5009945;28;20163;-54
2022/07/13 00:55:48;;;;;;;4.80;4.30;;;;;;;;;;4998266;28;20196;-54
2022/07/13 00:58:14;;;;;;;4.97;4.57;;;;;;;;;;5004701;28;20197;-55
2022/07/13 01:00:40;;;;;;;4.30;4.00;;;;;;;;;;4989016;28;20197;-55
2022/07/13 01:03:06;;;;;;;4.43;4.13;;;;;;;;;;5005170;28;20271;-55
2022/07/13 01:05:32;;;;;;;4.33;3.93;;;;;;;;;;5008219;28;20183;-54
2022/07/13 01:07:58;;;;;;;4.67;4.27;;;;;;;;;;5007753;28;20190;-54
2022/07/13 01:10:25;;;;;;;4.30;4.00;;;;;;;;;;5009332;28;20211;-55
2022/07/13 01:12:52;;;;;;;4.00;3.67;;;;;;;;;;5009622;28;20183;-54
2022/07/13 01:15:18;;;;;;;4.40;4.10;;;;;;;;;;5006823;28;20670;-55
2022/07/13 01:17:44;;;;;;;4.47;4.13;;;;;;;;;;5002757;28;20191;-55
2022/07/13 01:20:10;;;;;;;4.93;4.53;;;;;;;;;;5009580;28;20489;-54
2022/07/13 01:22:41;;;;;;;4.50;4.10;;;;;;;;;;5019450;28;20359;-54
2022/07/13 01:25:09;;;;;;;4.13;3.83;;;;;;;;;;5018698;28;20197;-54
2022/07/13 01:27:36;;;;;;;5.00;4.50;;;;;;;;;;5029027;28;20236;-54
2022/07/13 01:30:03;;;;;;;3.80;3.50;;;;;;;;;;5029389;28;20676;-54
2022/07/13 01:32:29;;;;;;;4.10;3.80;;;;;;;;;;5012663;28;20174;-54
2022/07/13 01:34:55;;;;;;;4.13;3.83;;;;;;;;;;5021125;28;20596;-54
2022/07/13 01:37:21;;;;;;;4.33;4.03;;;;;;;;;;5021092;28;20739;-54
2022/07/13 01:39:47;;;;;;;5.17;4.67;;;;;;;;;;5027136;28;20181;-54
2022/07/13 01:42:13;;;;;;;4.43;4.13;;;;;;;;;;5011182;28;20235;-55
2022/07/13 01:44:39;;;;;;;4.40;4.00;;;;;;;;;;5027800;28;20263;-54
2022/07/13 01:47:09;;;;;;;4.23;3.93;;;;;;;;;;5028330;28;20185;-54
2022/07/13 01:49:35;;;;;;;5.23;3.97;;;;;;;;;;5029304;28;20696;-54
2022/07/13 01:52:01;;;;;;;4.33;4.03;;;;;;;;;;5017513;28;20186;-54
2022/07/13 01:54:27;;;;;;;4.03;3.73;;;;;;;;;;5028256;28;20185;-54
2022/07/13 01:56:53;;;;;;;4.43;4.03;;;;;;;;;;5019256;28;20182;-54
2022/07/13 01:59:19;;;;;;;4.40;4.10;;;;;;;;;;5027206;28;20219;-54
2022/07/13 02:01:45;;;;;;;4.57;4.13;;;;;;;;;;5027816;28;20170;-55
2022/07/13 02:04:12;;;;;;;3.97;3.67;;;;;;;;;;5029245;28;20592;-54
2022/07/13 02:06:38;;;;;;;4.00;3.70;;;;;;;;;;5022523;28;20192;-55
2022/07/13 02:09:04;;;;;;;3.90;3.63;;;;;;;;;;5027349;28;20291;-55
2022/07/13 02:11:30;;;;;;;5.03;4.30;;;;;;;;;;5021268;28;20189;-54
2022/07/13 02:13:56;;;;;;;3.93;3.63;;;;;;;;;;5026444;28;20668;-54
2022/07/13 02:16:22;;;;;;;4.83;4.00;;;;;;;;;;5028018;28;20178;-54
2022/07/13 02:18:48;;;;;;;4.50;4.10;;;;;;;;;;5028300;28;20271;-55
2022/07/13 02:21:14;;;;;;;4.23;3.93;;;;;;;;;;5022776;28;20767;-54
2022/07/13 02:23:41;;;;;;;4.03;3.73;;;;;;;;;;5005098;28;20685;-55
2022/07/13 02:26:07;;;;;;;4.07;3.77;;;;;;;;;;4989762;28;20182;-55
2022/07/13 02:28:33;;;;;;;4.27;3.97;;;;;;;;;;5003711;28;20698;-55
2022/07/13 02:30:59;;;;;;;3.80;3.53;;;;;;;;;;5002721;28;20664;-55
2022/07/13 02:33:25;;;;;;;4.00;3.70;;;;;;;;;;4989984;28;20686;-55
2022/07/13 02:35:51;;;;;;;4.53;4.13;;;;;;;;;;5000675;28;20185;-54
2022/07/13 02:38:17;;;;;;;3.90;3.60;;;;;;;;;;5007187;28;20564;-55
2022/07/13 02:40:43;;;;;;;4.13;3.73;;;;;;;;;;5006397;28;20673;-54
2022/07/13 02:43:09;;;;;;;4.43;3.87;;;;;;;;;;4999601;28;20189;-54
2022/07/13 02:45:35;;;;;;;4.67;4.37;;;;;;;;;;5008171;28;20249;-55
2022/07/13 02:48:01;;;;;;;4.50;4.20;;;;;;;;;;5004379;28;20469;-55
2022/07/13 02:50:27;;;;;;;3.63;3.43;;;;;;;;;;5009173;28;20667;-54
2022/07/13 02:52:53;;;;;;;4.13;3.83;;;;;;;;;;4988765;28;20574;-54
2022/07/13 02:55:19;;;;;;;4.30;3.90;;;;;;;;;;5002741;28;20570;-55
2022/07/13 02:57:46;;;;;;;4.10;3.80;;;;;;;;;;4998684;28;20204;-55
2022/07/13 03:00:12;;;;;;;4.00;3.70;;;;;;;;;;5005839;28;20186;-54
2022/07/13 03:02:38;;;;;;;4.00;3.70;;;;;;;;;;5002698;28;20193;-55
2022/07/13 03:05:05;;;;;;;4.43;4.13;;;;;;;;;;5008253;28;20689;-54
2022/07/13 03:07:31;;;;;;;4.03;3.73;;;;;;;;;;4981360;28;20527;-54
2022/07/13 03:09:57;;;;;;;4.20;3.90;;;;;;;;;;5008095;28;20190;-54
2022/07/13 03:12:23;;;;;;;4.63;4.23;;;;;;;;;;4997100;28;20669;-54
2022/07/13 03:14:49;;;;;;;4.43;4.03;;;;;;;;;;5007913;28;20225;-54
2022/07/13 03:17:15;;;;;;;6.13;5.73;;;;;;;;;;4999271;28;20179;-54
2022/07/13 03:19:41;;;;;;;5.03;4.07;;;;;;;;;;5008241;28;20241;-55
2022/07/13 03:22:07;;;;;;;4.10;3.80;;;;;;;;;;5010597;28;20252;-55
2022/07/13 03:24:34;;;;;;;4.63;4.13;;;;;;;;;;5026687;28;20186;-55
2022/07/13 03:27:00;;;;;;;4.10;3.80;;;;;;;;;;5025178;28;20186;-55
2022/07/13 03:29:27;;;;;;;4.07;3.70;;;;;;;;;;5028977;28;20639;-54
2022/07/13 03:31:53;;;;;;;10.30;9.70;;;;;;;;;;5026530;28;20185;-55
2022/07/13 03:34:19;;;;;;;4.03;3.73;;;;;;;;;;5028919;28;20652;-55
2022/07/13 03:36:45;;;;;;;4.03;3.73;;;;;;;;;;5026684;28;20932;-54
2022/07/13 03:39:11;;;;;;;4.33;4.03;;;;;;;;;;5026848;28;20619;-55
2022/07/13 03:41:37;;;;;;;3.80;3.60;;;;;;;;;;5027367;28;20201;-54
2022/07/13 03:44:03;;;;;;;4.10;3.80;;;;;;;;;;5027674;28;20178;-55
2022/07/13 03:46:30;;;;;;;4.53;3.80;;;;;;;;;;5020371;28;20589;-54
2022/07/13 03:48:56;;;;;;;4.13;3.83;;;;;;;;;;5025513;28;20293;-55
2022/07/13 03:51:22;;;;;;;4.10;3.80;;;;;;;;;;5028143;28;20190;-54
2022/07/13 03:53:48;;;;;;;4.03;3.73;;;;;;;;;;5028045;28;20174;-54
2022/07/13 03:56:14;;;;;;;3.97;3.67;;;;;;;;;;5036667;28;20189;-55
2022/07/13 03:58:40;;;;;;;3.73;3.43;;;;;;;;;;5031540;28;20181;-54
2022/07/13 04:01:06;;;;;;;4.80;4.50;;;;;;;;;;5031390;28;20236;-54
2022/07/13 04:03:32;;;;;;;3.70;3.50;;;;;;;;;;5034078;28;20181;-54
2022/07/13 04:05:58;;;;;;;3.80;3.60;;;;;;;;;;5031109;28;20370;-55
2022/07/13 04:08:24;;;;;;;3.93;3.73;;;;;;;;;;5031049;28;20272;-54
2022/07/13 04:10:50;;;;;;;3.93;3.63;;;;;;;;;;5031007;28;20255;-54
2022/07/13 04:13:16;;;;;;;4.53;4.23;;;;;;;;;;5027923;28;20189;-54
2022/07/13 04:15:43;;;;;;;3.77;3.47;;;;;;;;;;5038119;28;20177;-54
2022/07/13 04:18:09;;;;;;;4.43;4.13;;;;;;;;;;5027866;28;20174;-54
2022/07/13 04:20:35;;;;;;;4.07;3.77;;;;;;;;;;5023197;28;20608;-54
2022/07/13 04:23:01;;;;;;;3.67;3.37;;;;;;;;;;5020108;28;20769;-54
2022/07/13 04:25:27;;;;;;;4.07;3.73;;;;;;;;;;5028273;28;20718;-54
2022/07/13 04:27:53;;;;;;;3.80;3.50;;;;;;;;;;5026873;28;20212;-54
2022/07/13 04:30:19;;;;;;;3.83;3.53;;;;;;;;;;5024375;28;20755;-54
2022/07/13 04:32:45;;;;;;;3.53;3.23;;;;;;;;;;5027892;28;20199;-54
2022/07/13 04:35:11;;;;;;;3.63;3.43;;;;;;;;;;5031737;28;20165;-54
2022/07/13 04:37:37;;;;;;;3.90;3.60;;;;;;;;;;5022517;28;20591;-55
2022/07/13 04:40:03;;;;;;;3.90;3.60;;;;;;;;;;5029153;28;20682;-54
2022/07/13 04:42:30;;;;;;;3.83;3.60;;;;;;;;;;5024831;28;20184;-55
2022/07/13 04:44:56;;;;;;;3.30;3.03;;;;;;;;;;5033319;28;20190;-55
2022/07/13 04:47:22;;;;;;;3.40;3.13;;;;;;;;;;5026882;28;20654;-54
2022/07/13 04:49:48;;;;;;;2.97;2.77;;;;;;;;;;5029862;28;20212;-55
2022/07/13 04:52:14;;;;;;;4.20;3.90;;;;;;;;;;5028462;28;20182;-55
2022/07/13 04:54:40;;;;;;;3.50;3.20;;;;;;;;;;5030359;28;20178;-55
2022/07/13 04:57:12;;;;;;;3.50;3.30;;;;;;;;;;5028702;28;20184;-54
2022/07/13 04:59:38;;;;;;;3.60;3.40;;;;;;;;;;5033640;28;20636;-54
2022/07/13 05:02:04;;;;;;;3.87;3.63;;;;;;;;;;5020188;28;20204;-54
2022/07/13 05:04:30;;;;;;;3.47;3.27;;;;;;;;;;5011290;28;20216;-55
2022/07/13 05:06:56;;;;;;;3.80;3.40;;;;;;;;;;5019403;28;20619;-55
2022/07/13 05:09:22;;;;;;;4.87;3.30;;;;;;;;;;5029353;28;20670;-55
2022/07/13 05:11:48;;;;;;;3.53;3.23;;;;;;;;;;5022017;28;20667;-55
2022/07/13 05:14:14;;;;;;;3.90;3.60;;;;;;;;;;5030691;28;20608;-55
2022/07/13 05:16:41;;;;;;;3.63;3.37;;;;;;;;;;5025944;28;20180;-54
2022/07/13 05:19:07;;;;;;;3.57;3.27;;;;;;;;;;5029244;28;20366;-55
2022/07/13 05:21:33;;;;;;;3.27;3.00;;;;;;;;;;5021864;28;20640;-54
2022/07/13 05:23:59;;;;;;;3.40;3.10;;;;;;;;;;4997885;28;20225;-55
2022/07/13 05:26:25;;;;;;;3.10;2.90;;;;;;;;;;5007521;28;20194;-55
2022/07/13 05:28:51;;;;;;;3.27;3.00;;;;;;;;;;5007742;28;20224;-55
2022/07/13 05:31:17;;;;;;;3.70;3.40;;;;;;;;;;5007788;28;20218;-55
2022/07/13 05:33:50;;;;;;;3.33;3.03;;;;;;;;;;4992008;28;20249;-54
2022/07/13 05:36:16;;;;;;;2.87;2.67;;;;;;;;;;5007710;28;20171;-54
2022/07/13 05:38:42;;;;;;;4.27;3.97;;;;;;;;;;5007500;28;20641;-55
2022/07/13 05:41:08;;;;;;;4.33;3.07;;;;;;;;;;5005886;28;20193;-55
2022/07/13 05:43:34;;;;;;;3.20;3.00;;;;;;;;;;5003975;28;20269;-54
2022/07/13 05:46:01;;;;;;;3.17;2.97;;;;;;;;;;5006197;28;20580;-54
2022/07/13 05:48:27;;;;;;;3.45;3.22;;;;;;;;;;4991855;28;20752;-54
2022/07/13 05:50:53;;;;;;;3.50;3.30;;;;;;;;;;5001312;28;20214;-54
2022/07/13 05:53:19;;;;;;;4.40;3.40;;;;;;;;;;4989924;28;20163;-54
2022/07/13 05:55:45;;;;;;;3.03;2.80;;;;;;;;;;5005797;28;20577;-54
2022/07/13 05:58:18;;;;;;;4.03;3.73;;;;;;;;;;4990681;28;20171;-55
2022/07/13 06:00:44;;;;;;;4.00;3.70;;;;;;;;;;4991459;28;20634;-55
2022/07/13 06:03:10;;;;;;;3.40;3.10;;;;;;;;;;5008033;28;20171;-55
2022/07/13 06:05:36;;;;;;;3.53;3.23;;;;;;;;;;5008884;28;20167;-55
2022/07/13 06:08:02;;;;;;;3.87;3.47;;;;;;;;;;5004390;28;20175;-54
2022/07/13 06:10:30;;;;;;;3.23;2.93;;;;;;;;;;5008737;28;20245;-54
2022/07/13 06:12:56;;;;;;;3.23;2.93;;;;;;;;;;4991342;28;20261;-55
2022/07/13 06:15:22;;;;;;;3.27;3.03;;;;;;;;;;5008493;28;20694;-54
2022/07/13 06:17:48;;;;;;;2.70;2.50;;;;;;;;;;5004907;28;20178;-57
2022/07/13 06:20:14;;;;;;;3.60;3.30;;;;;;;;;;5009095;28;20198;-54
2022/07/13 06:23:09;;;;;;;4.37;3.97;;;;;;;;;;5016823;28;20719;-54
2022/07/13 06:25:32;;;;;;;3.40;3.10;;;;;;;;;;5022669;28;20192;-54
2022/07/13 06:27:58;;;;;;;2.80;2.60;;;;;;;;;;5031601;28;21136;-54
2022/07/13 06:30:24;;;;;;;3.50;3.20;;;;;;;;;;5026166;28;20674;-55
2022/07/13 06:32:50;;;;;;;3.30;3.10;;;;;;;;;;5034904;28;20636;-55
2022/07/13 06:35:16;;;;;;;4.00;3.47;;;;;;;;;;5024934;28;20513;-54
2022/07/13 06:37:42;;;;;;;3.80;3.00;;;;;;;;;;5025282;28;20529;-55
2022/07/13 06:40:09;;;;;;;3.10;2.80;;;;;;;;;;5025152;28;20746;-56
2022/07/13 06:42:35;;;;;;;3.47;2.80;;;;;;;;;;5034393;28;20179;-55
2022/07/13 06:45:01;;;;;;;3.20;3.00;;;;;;;;;;5049093;28;20249;-55
2022/07/13 06:47:27;;;;;;;4.20;2.87;;;;;;;;;;5017219;28;20193;-55
2022/07/13 06:49:53;;;;;;;3.20;3.00;;;;;;;;;;5008504;28;20305;-55
2022/07/13 06:52:19;;;;;;;3.27;2.97;;;;;;;;;;5023204;28;20181;-55
2022/07/13 06:54:45;;;;;;;3.80;3.50;;;;;;;;;;5027126;28;20157;-55
2022/07/13 06:57:11;;;;;;;5.33;3.47;;;;;;;;;;5015416;28;20176;-55
2022/07/13 06:59:37;;;;;;;3.67;3.37;;;;;;;;;;5027590;28;20263;-55
2022/07/13 07:02:03;;;;;;;3.50;3.20;;;;;;;;;;5028039;28;20176;-55
2022/07/13 07:04:29;;;;;;;4.33;3.37;;;;;;;;;;5028929;28;20743;-54
2022/07/13 07:06:56;;;;;;;3.80;3.50;;;;;;;;;;5016804;28;20218;-55
2022/07/13 07:09:23;;;;;;;3.50;3.20;;;;;;;;;;5008550;28;20189;-58
2022/07/13 07:11:49;;;;;;;3.33;3.10;;;;;;;;;;5015764;28;20184;-54
2022/07/13 07:14:15;;;;;;;3.47;3.17;;;;;;;;;;5008529;28;20332;-55
2022/07/13 07:16:42;;;;;;;3.70;3.40;;;;;;;;;;5028217;28;20683;-55
2022/07/13 07:19:09;;;;;;;3.40;3.10;;;;;;;;;;5028924;28;20170;-54
2022/07/13 07:21:35;;;;;;;6.70;2.90;;;;;;;;;;5019360;28;20206;-54
2022/07/13 07:24:01;;;;;;;5.20;3.20;;;;;;;;;;4990843;28;20223;-55
2022/07/13 07:26:30;;;;;;;3.97;3.53;;;;;;;;;;4988528;28;20272;-55
2022/07/13 07:28:56;;;;;;;3.20;2.90;;;;;;;;;;4989063;28;20191;-55
2022/07/13 07:31:22;;;;;;;3.93;2.90;;;;;;;;;;4994120;28;20648;-55
2022/07/13 07:33:48;;;;;;;3.23;2.93;;;;;;;;;;5012964;28;20269;-55
2022/07/13 07:36:16;;;;;;;3.57;3.27;;;;;;;;;;5007987;28;20601;-55
2022/07/13 07:38:42;;;;;;;3.10;2.80;;;;;;;;;;5011784;28;20169;-55
2022/07/13 07:41:10;;;;;;;4.43;3.13;;;;;;;;;;5006955;28;20328;-55
2022/07/13 07:43:36;;;;;;;5.60;3.20;;;;;;;;;;4995893;28;20181;-55
2022/07/13 07:46:03;;;;;;;3.80;3.13;;;;;;;;;;5008145;28;20194;-55
2022/07/13 07:48:29;;;;;;;4.50;3.30;;;;;;;;;;4993881;28;20186;-54
2022/07/13 07:50:55;;;;;;;10.97;3.77;;;;;;;;;;5008615;28;20214;-55
2022/07/13 07:53:21;;;;;;;5.70;3.33;;;;;;;;;;4992264;28;20626;-55
2022/07/13 07:55:47;;;;;;;4.20;3.37;;;;;;;;;;4992275;28;20175;-55
2022/07/13 07:58:14;;;;;;;3.63;3.33;;;;;;;;;;4993371;28;20160;-55
2022/07/13 08:00:43;;;;;;;3.07;2.87;;;;;;;;;;4992593;28;20595;-55
2022/07/13 08:03:09;;;;;;;3.97;2.70;;;;;;;;;;4992875;28;20168;-55
2022/07/13 08:05:35;;;;;;;2.87;2.60;;;;;;;;;;4995035;28;20182;-55
2022/07/13 08:08:02;;;;;;;4.87;2.73;;;;;;;;;;4991327;28;20211;-55
2022/07/13 08:10:28;;;;;;;3.03;2.83;;;;;;;;;;4991153;28;20724;-55
2022/07/13 08:12:55;;;;;;;3.58;3.25;;;;;;;;;;4991901;28;20433;-55
2022/07/13 08:15:22;;;;;;;3.40;3.10;;;;;;;;;;4992750;28;20155;-55
2022/07/13 08:17:48;;;;;;;3.20;2.90;;;;;;;;;;4992818;28;20171;-56
2022/07/13 08:20:14;;;;;;;3.27;2.97;;;;;;;;;;4991855;28;20195;-55
2022/07/13 08:22:40;;;;;;;4.87;2.67;;;;;;;;;;4997429;28;20710;-55
2022/07/13 08:25:06;;;;;;;6.23;3.20;;;;;;;;;;5010106;28;20167;-55
2022/07/13 08:27:32;;;;;;;5.10;3.03;;;;;;;;;;4994075;28;20302;-55
2022/07/13 08:29:59;;;;;;;3.93;2.93;;;;;;;;;;5011592;28;20190;-55
2022/07/13 08:32:26;;;;;;;3.43;3.13;;;;;;;;;;4996402;28;20287;-55
2022/07/13 08:40:22;;;;;;;3.83;3.53;;;;;;;;;;5009665;28;20270;-55
2022/07/13 08:42:48;;;;;;;5.83;3.43;;;;;;;;;;4990250;28;20191;-55
2022/07/13 08:45:14;;;;;;;3.60;3.20;;;;;;;;;;4995834;28;20179;-55
2022/07/13 08:47:42;;;;;;;4.47;3.40;;;;;;;;;;5004657;28;20197;-55
2022/07/13 08:50:09;;;;;;;2.87;2.63;;;;;;;;;;5000997;28;20199;-55
2022/07/13 08:52:36;;;;;;;4.30;3.80;;;;;;;;;;5007339;28;20266;-55
2022/07/13 08:55:04;;;;;;;3.30;3.00;;;;;;;;;;5007996;28;20179;-55
2022/07/13 08:57:31;;;;;;;5.70;3.00;;;;;;;;;;4998560;28;20289;-55
2022/07/13 08:59:57;;;;;;;3.77;3.00;;;;;;;;;;5008478;28;20174;-55
2022/07/13 09:02:23;;;;;;;7.03;2.93;;;;;;;;;;5001447;28;20181;-55
2022/07/13 09:04:50;;;;;;;3.53;3.30;;;;;;;;;;4998929;28;20266;-55
2022/07/13 09:07:16;;;;;;;3.83;3.53;;;;;;;;;;4999277;28;20197;-55
2022/07/13 09:09:42;;;;;;;4.33;2.80;;;;;;;;;;5003383;28;20654;-55
2022/07/13 09:12:22;;;;;;;3.70;3.40;;;;;;;;;;4988587;28;20241;-54
2022/07/13 09:14:52;;;;;;;3.97;3.57;;;;;;;;;;5010810;28;20181;-55
2022/07/13 09:17:29;;;;;;;3.53;3.23;;;;;;;;;;5006966;28;20822;-56
2022/07/13 09:19:56;;;;;;;2.73;2.53;;;;;;;;;;5004725;28;20213;-56
2022/07/13 09:22:22;;;;;;;4.03;3.63;;;;;;;;;;4999055;28;20711;-56
2022/07/13 09:24:50;;;;;;;3.63;3.33;;;;;;;;;;5022450;28;20261;-56
2022/07/13 09:27:17;;;;;;;3.63;3.30;;;;;;;;;;5020803;28;20221;-56
2022/07/13 09:29:43;;;;;;;3.77;3.23;;;;;;;;;;5021139;28;20236;-56
2022/07/13 09:32:11;;;;;;;3.50;3.20;;;;;;;;;;5025870;28;20528;-56
2022/07/13 09:34:46;;;;;;;3.70;3.40;;;;;;;;;;5023861;28;20186;-56
2022/07/13 09:37:13;;;;;;;9.97;3.73;;;;;;;;;;5026398;28;20204;-56
2022/07/13 09:39:58;;;;;;;4.23;3.33;;;;;;;;;;5028249;28;20240;-57
2022/07/13 09:42:30;;;;;;;4.20;3.77;;;;;;;;;;5026628;28;20182;-56
2022/07/13 09:47:49;;;;;;;5.87;3.40;;;;;;;;;;5023945;28;20639;-55
2022/07/13 09:50:19;;;;;;;3.47;3.17;;;;;;;;;;5028517;28;20340;-56
2022/07/13 09:52:48;;;;;;;4.60;3.23;;;;;;;;;;5024213;28;20201;-56
2022/07/13 09:55:19;;;;;;;6.77;3.47;;;;;;;;;;5020453;28;20349;-56
2022/07/13 09:57:49;;;;;;;3.93;3.53;;;;;;;;;;5026652;28;20273;-56
2022/07/13 10:00:17;;;;;;;4.47;3.47;;;;;;;;;;5026190;28;20264;-56
2022/07/13 10:02:47;;;;;;;3.40;3.13;;;;;;;;;;5027186;28;20189;-56
2022/07/13 10:05:14;;;;;;;3.53;3.23;;;;;;;;;;5026210;28;20235;-56
2022/07/13 10:07:41;;;;;;;3.87;3.07;;;;;;;;;;5025938;28;20186;-56
2022/07/13 10:10:08;;;;;;;3.67;3.37;;;;;;;;;;5009941;28;20209;-56
2022/07/13 10:12:36;;;;;;;3.50;3.20;;;;;;;;;;5027781;28;20253;-56
2022/07/13 10:15:02;;;;;;;3.77;3.47;;;;;;;;;;5026824;28;20182;-57
2022/07/13 10:17:29;;;;;;;4.50;3.17;;;;;;;;;;5025931;28;20174;-56
2022/07/13 10:19:55;;;;;;;3.07;2.87;;;;;;;;;;5010843;28;20213;-56
2022/07/13 10:22:29;;;;;;;3.40;2.97;;;;;;;;;;5026471;28;20991;-56
2022/07/13 10:24:57;;;;;;;3.50;3.20;;;;;;;;;;5027383;28;20242;-56
2022/07/13 10:27:27;;;;;;;3.60;3.20;;;;;;;;;;5026769;28;20969;-56
2022/07/13 10:29:54;;;;;;;3.23;2.93;;;;;;;;;;5027738;28;20495;-56
2022/07/13 10:32:26;;;;;;;5.27;3.60;;;;;;;;;;5024987;28;20188;-56
2022/07/13 10:34:58;;;;;;;3.53;3.23;;;;;;;;;;5021344;28;20285;-56
2022/07/13 10:37:26;;;;;;;3.30;3.00;;;;;;;;;;5024012;28;20204;-56
2022/07/13 10:40:12;;;;;;;4.05;3.47;;;;;;;;;;5025896;28;20460;-56
2022/07/13 10:43:04;;;;;;;4.90;3.33;;;;;;;;;;5027028;28;20191;-56
2022/07/13 10:45:40;;;;;;;6.23;3.33;;;;;;;;;;4996435;28;20660;-56
2022/07/13 10:48:07;;;;;;;4.23;3.20;;;;;;;;;;5026569;28;20208;-56
2022/07/13 10:50:48;;;;;;;3.93;3.20;;;;;;;;;;5024849;28;20725;-56
2022/07/13 10:53:18;;;;;;;4.13;3.33;;;;;;;;;;5026090;28;20228;-56
2022/07/13 10:55:51;;;;;;;3.80;3.50;;;;;;;;;;5026270;28;20179;-56
2022/07/13 10:58:37;;;;;;;4.60;3.70;;;;;;;;;;5027038;28;20183;-57
2022/07/13 11:01:24;;;;;;;6.83;3.87;;;;;;;;;;5007565;28;20489;-56
2022/07/13 11:03:51;;;;;;;5.23;3.17;;;;;;;;;;5024913;28;20197;-56
2022/07/13 11:06:23;;;;;;;3.50;2.83;;;;;;;;;;5022953;28;20174;-56
2022/07/13 11:09:07;;;;;;;6.80;3.13;;;;;;;;;;5026047;28;20555;-56
2022/07/13 11:11:34;;;;;;;4.47;3.70;;;;;;;;;;5007324;28;20677;-56
2022/07/13 11:14:00;;;;;;;4.40;3.10;;;;;;;;;;5025845;28;20641;-56
2022/07/13 11:16:55;;;;;;;5.40;3.53;;;;;;;;;;5024795;28;20206;-58
2022/07/13 11:19:41;;;;;;;3.57;3.27;;;;;;;;;;5011206;28;20211;-56
2022/07/13 11:22:08;;;;;;;5.53;3.30;;;;;;;;;;5008816;28;20186;-57
2022/07/13 11:27:29;;;;;;;3.83;3.20;;;;;;;;;;5023447;28;20715;-56
2022/07/13 11:30:04;;;;;;;2.83;2.63;;;;;;;;;;5023772;28;20209;-56
2022/07/13 11:32:31;;;;;;;4.73;3.50;;;;;;;;;;5021894;28;20582;-56
2022/07/13 11:34:58;;;;;;;3.60;3.23;;;;;;;;;;5028493;28;20174;-54
2022/07/13 11:37:25;;;;;;;3.53;3.23;;;;;;;;;;5005312;28;20263;-58
2022/07/13 11:39:51;;;;;;;3.60;3.03;;;;;;;;;;5019493;28;20166;-59
2022/07/13 11:42:21;;;;;;;4.20;3.80;;;;;;;;;;5023565;28;20186;-59
2022/07/13 11:44:49;;;;;;;3.17;2.97;;;;;;;;;;5027560;28;20676;-56
2022/07/13 11:47:16;;;;;;;4.00;3.43;;;;;;;;;;5009405;28;20548;-58
2022/07/13 11:49:53;;;;;;;3.80;3.40;;;;;;;;;;5026096;28;20206;-57
2022/07/13 11:52:20;;;;;;;4.30;2.97;;;;;;;;;;5024915;28;20178;-56
2022/07/13 11:54:55;;;;;;;3.13;2.90;;;;;;;;;;5024588;28;20182;-58
2022/07/13 11:57:22;;;;;;;3.80;3.40;;;;;;;;;;5020652;28;20178;-59
2022/07/13 11:59:48;;;;;;;7.60;7.10;;;;;;;;;;5025124;28;20593;-59
2022/07/13 12:02:20;;;;;;;6.33;5.83;;;;;;;;;;5022489;28;20189;-59
2022/07/13 12:04:48;;;;;;;4.47;3.50;;;;;;;;;;5025408;28;20212;-57
2022/07/13 12:07:15;;;;;;;4.20;3.27;;;;;;;;;;5024995;28;20189;-57
2022/07/13 12:09:51;;;;;;;5.80;3.13;;;;;;;;;;5026510;28;20199;-58
2022/07/13 12:12:18;;;;;;;4.10;3.80;;;;;;;;;;5024344;28;20228;-59
2022/07/13 12:14:44;;;;;;;5.10;3.60;;;;;;;;;;5027162;28;20185;-57
2022/07/13 12:17:11;;;;;;;4.83;3.70;;;;;;;;;;5026332;28;20189;-57
2022/07/13 12:19:37;;;;;;;3.43;3.13;;;;;;;;;;5029559;28;20529;-58
2022/07/13 12:22:05;;;;;;;4.27;3.43;;;;;;;;;;5010517;28;20677;-57
2022/07/13 12:24:32;;;;;;;3.60;3.30;;;;;;;;;;5014003;28;20224;-58
2022/07/13 12:26:58;;;;;;;3.93;3.50;;;;;;;;;;5010754;28;20256;-58
2022/07/13 12:29:28;;;;;;;3.53;3.20;;;;;;;;;;5013451;28;20677;-56
2022/07/13 12:31:54;;;;;;;4.03;3.60;;;;;;;;;;5011682;28;20213;-59
2022/07/13 12:34:20;;;;;;;4.27;3.20;;;;;;;;;;5003382;28;20186;-57
2022/07/13 12:36:50;;;;;;;4.03;3.50;;;;;;;;;;5004935;28;20171;-59
2022/07/13 12:39:19;;;;;;;4.93;3.10;;;;;;;;;;5010181;28;20200;-58
2022/07/13 12:41:55;;;;;;;3.37;3.17;;;;;;;;;;5010014;28;20200;-57
2022/07/13 12:44:27;;;;;;;3.97;3.67;;;;;;;;;;4994244;28;20177;-58
2022/07/13 12:46:58;;;;;;;3.53;3.27;;;;;;;;;;5002248;28;20181;-57
2022/07/13 12:49:43;;;;;;;4.17;3.10;;;;;;;;;;5011587;28;20743;-58
2022/07/13 12:52:10;;;;;;;3.80;3.00;;;;;;;;;;5009829;28;20211;-58
2022/07/13 12:54:53;;;;;;;4.13;3.50;;;;;;;;;;5012079;28;20196;-57
2022/07/13 12:57:26;;;;;;;4.67;4.30;;;;;;;;;;5003705;28;20192;-59
2022/07/13 12:59:58;;;;;;;4.70;4.03;;;;;;;;;;4999682;28;20217;-58
2022/07/13 13:02:24;;;;;;;4.17;3.80;;;;;;;;;;5009557;28;20766;-58
2022/07/13 13:04:50;;;;;;;4.57;4.17;;;;;;;;;;5010176;28;20197;-56
2022/07/13 13:07:17;;;;;;;3.87;3.50;;;;;;;;;;5010242;28;20176;-58
2022/07/13 13:09:43;;;;;;;3.67;3.37;;;;;;;;;;5009488;28;20273;-56
2022/07/13 13:12:09;;;;;;;4.30;3.60;;;;;;;;;;4988007;28;20180;-57
2022/07/13 13:14:35;;;;;;;4.00;3.60;;;;;;;;;;5011121;28;20616;-58
2022/07/13 13:17:01;;;;;;;3.87;3.57;;;;;;;;;;5010045;28;20545;-58
2022/07/13 13:19:27;;;;;;;4.13;3.73;;;;;;;;;;5009777;28;20583;-59
2022/07/13 13:21:53;;;;;;;3.63;3.33;;;;;;;;;;5002311;28;20528;-58
2022/07/13 13:24:19;;;;;;;4.10;3.47;;;;;;;;;;5026197;28;20283;-58
2022/07/13 13:26:45;;;;;;;4.13;3.60;;;;;;;;;;5028792;28;20185;-57
2022/07/13 13:31:58;;;;;;;3.37;3.17;;;;;;;;;;5018091;28;20208;-58
2022/07/13 13:34:24;;;;;;;3.77;3.47;;;;;;;;;;5022736;28;20186;-57
2022/07/13 13:36:50;;;;;;;3.70;3.10;;;;;;;;;;5010086;28;20188;-58
2022/07/13 13:39:17;;;;;;;3.63;3.33;;;;;;;;;;5013731;28;20181;-58
2022/07/13 13:41:43;;;;;;;4.17;3.67;;;;;;;;;;5019298;28;20232;-58
2022/07/13 13:44:09;;;;;;;3.50;3.20;;;;;;;;;;5009943;28;20256;-59
2022/07/13 13:46:35;;;;;;;3.43;3.23;;;;;;;;;;5020749;28;20558;-59
2022/07/13 13:49:01;;;;;;;4.30;3.37;;;;;;;;;;5015593;28;20206;-58
2022/07/13 13:51:27;;;;;;;3.07;2.87;;;;;;;;;;5023474;28;20183;-59
2022/07/13 13:53:53;;;;;;;3.60;3.10;;;;;;;;;;5030458;28;20186;-58
2022/07/13 13:56:21;;;;;;;3.30;3.00;;;;;;;;;;5013488;28;20544;-59
2022/07/13 13:58:48;;;;;;;3.13;2.93;;;;;;;;;;4996449;28;20211;-57
2022/07/13 14:01:14;;;;;;;4.97;4.67;;;;;;;;;;5026839;28;20186;-57
2022/07/13 14:03:40;;;;;;;2.83;2.60;;;;;;;;;;5021411;28;20180;-59
2022/07/13 14:06:07;;;;;;;3.30;3.10;;;;;;;;;;5010930;28;20255;-58
2022/07/13 14:08:33;;;;;;;3.33;3.10;;;;;;;;;;5028356;28;20183;-59
2022/07/13 14:10:59;;;;;;;3.27;2.97;;;;;;;;;;5028501;28;20686;-58
2022/07/13 14:13:26;;;;;;;3.87;3.57;;;;;;;;;;5032197;28;20619;-59
2022/07/13 14:15:52;;;;;;;4.67;2.67;;;;;;;;;;5044209;28;20186;-58
2022/07/13 14:18:20;;;;;;;2.80;2.60;;;;;;;;;;5028072;28;20185;-59
2022/07/13 14:20:46;;;;;;;3.03;2.73;;;;;;;;;;5025329;28;20205;-58
2022/07/13 14:23:12;;;;;;;4.90;4.53;;;;;;;;;;5017447;28;20229;-56
2022/07/13 14:25:38;;;;;;;3.60;3.30;;;;;;;;;;5026763;28;20173;-59
2022/07/13 14:28:04;;;;;;;2.90;2.70;;;;;;;;;;5009012;28;20186;-58
2022/07/13 14:30:30;;;;;;;3.53;3.23;;;;;;;;;;5011070;28;20215;-57
2022/07/13 14:32:57;;;;;;;3.10;2.90;;;;;;;;;;5002550;28;20193;-56
2022/07/13 14:35:23;;;;;;;3.03;2.60;;;;;;;;;;5026235;28;20621;-58
2022/07/13 14:37:49;;;;;;;2.90;2.70;;;;;;;;;;5006332;28;20180;-57
2022/07/13 14:40:15;;;;;;;2.87;2.67;;;;;;;;;;5022103;28;20180;-58
2022/07/13 14:42:42;;;;;;;3.00;2.70;;;;;;;;;;5020505;28;20186;-58
2022/07/13 14:45:08;;;;;;;2.90;2.70;;;;;;;;;;5026114;28;20173;-59
2022/07/13 14:47:34;;;;;;;3.17;2.87;;;;;;;;;;5005754;28;20654;-56
2022/07/13 14:50:01;;;;;;;3.53;2.97;;;;;;;;;;5016661;28;20200;-58
2022/07/13 14:52:27;;;;;;;3.03;2.83;;;;;;;;;;5011790;28;20193;-58
2022/07/13 14:54:53;;;;;;;2.93;2.73;;;;;;;;;;5007004;28;20695;-57
2022/07/13 14:57:19;;;;;;;3.10;2.80;;;;;;;;;;5008610;28;20621;-58
2022/07/13 14:59:45;;;;;;;4.70;2.90;;;;;;;;;;5017295;28;20185;-58